sensor_id;sensor_type;location;lat;lon;timestamp;P1;durP1;ratioP1;P2;durP2;ratioP2
72621;SDS011;60665;53.506;9.582;2024-01-15T00:00:16;2.03;;;0.43;;
72621;SDS011;60665;53.506;9.582;2024-01-15T00:03:40;4.47;;;0.95;;
72621;SDS011;60665;53.506;9.582;2024-01-15T00:07:05;5.88;;;1.02;;
72621;SDS011;60665;53.506;9.582;2024-01-15T00:10:29;6.68;;;0.75;;
72621;SDS011;60665;53.506;9.582;2024-01-15T00:17:17;9.52;;;1.00;;
72621;SDS011;60665;53.506;9.582;2024-01-15T00:24:05;4.85;;;0.80;;
72621;SDS011;60665;53.506;9.582;2024-01-15T00:27:29;1.75;;;0.52;;
72621;SDS011;60665;53.506;9.582;2024-01-15T00:34:16;3.55;;;0.60;;
72621;SDS011;60665;53.506;9.582;2024-01-15T00:37:40;5.60;;;0.82;;
72621;SDS011;60665;53.506;9.582;2024-01-15T00:41:04;7.05;;;1.33;;
72621;SDS011;60665;53.506;9.582;2024-01-15T00:47:52;7.78;;;0.90;;
72621;SDS011;60665;53.506;9.582;2024-01-15T00:51:16;5.47;;;0.90;;
72621;SDS011;60665;53.506;9.582;2024-01-15T00:54:40;7.78;;;0.82;;
72621;SDS011;60665;53.506;9.582;2024-01-15T01:01:28;6.60;;;0.80;;
72621;SDS011;60665;53.506;9.582;2024-01-15T01:04:52;9.15;;;0.85;;
72621;SDS011;60665;53.506;9.582;2024-01-15T01:08:16;13.20;;;1.42;;
72621;SDS011;60665;53.506;9.582;2024-01-15T01:11:40;9.35;;;1.45;;
72621;SDS011;60665;53.506;9.582;2024-01-15T01:18:28;7.18;;;1.33;;
72621;SDS011;60665;53.506;9.582;2024-01-15T01:25:16;5.47;;;0.88;;
72621;SDS011;60665;53.506;9.582;2024-01-15T01:28:40;9.02;;;0.82;;
72621;SDS011;60665;53.506;9.582;2024-01-15T01:32:04;5.88;;;0.90;;
72621;SDS011;60665;53.506;9.582;2024-01-15T01:35:28;3.35;;;0.65;;
72621;SDS011;60665;53.506;9.582;2024-01-15T01:42:16;8.73;;;1.02;;
72621;SDS011;60665;53.506;9.582;2024-01-15T01:49:07;3.85;;;0.55;;
72621;SDS011;60665;53.506;9.582;2024-01-15T01:52:32;6.38;;;0.77;;
72621;SDS011;60665;53.506;9.582;2024-01-15T01:55:57;5.20;;;0.80;;
72621;SDS011;60665;53.506;9.582;2024-01-15T01:59:21;4.03;;;0.50;;
72621;SDS011;60665;53.506;9.582;2024-01-15T02:02:46;7.30;;;0.73;;
72621;SDS011;60665;53.506;9.582;2024-01-15T02:09:35;6.30;;;0.80;;
72621;SDS011;60665;53.506;9.582;2024-01-15T02:16:22;4.25;;;0.55;;
72621;SDS011;60665;53.506;9.582;2024-01-15T02:23:11;8.38;;;0.73;;
72621;SDS011;60665;53.506;9.582;2024-01-15T02:26:35;5.10;;;0.50;;
72621;SDS011;60665;53.506;9.582;2024-01-15T02:29:59;7.78;;;0.60;;
72621;SDS011;60665;53.506;9.582;2024-01-15T02:33:24;6.90;;;0.73;;
72621;SDS011;60665;53.506;9.582;2024-01-15T02:36:47;6.45;;;0.70;;
72621;SDS011;60665;53.506;9.582;2024-01-15T02:43:35;3.83;;;0.57;;
72621;SDS011;60665;53.506;9.582;2024-01-15T02:46:59;7.82;;;0.70;;
72621;SDS011;60665;53.506;9.582;2024-01-15T02:53:48;4.00;;;0.65;;
72621;SDS011;60665;53.506;9.582;2024-01-15T02:57:13;3.90;;;0.55;;
72621;SDS011;60665;53.506;9.582;2024-01-15T03:04:00;6.40;;;0.63;;
72621;SDS011;60665;53.506;9.582;2024-01-15T03:10:48;7.75;;;0.90;;
72621;SDS011;60665;53.506;9.582;2024-01-15T03:14:13;8.13;;;1.15;;
72621;SDS011;60665;53.506;9.582;2024-01-15T03:17:37;13.50;;;1.08;;
72621;SDS011;60665;53.506;9.582;2024-01-15T03:24:26;5.13;;;0.57;;
72621;SDS011;60665;53.506;9.582;2024-01-15T03:31:14;2.28;;;0.50;;
72621;SDS011;60665;53.506;9.582;2024-01-15T03:38:01;3.33;;;0.52;;
72621;SDS011;60665;53.506;9.582;2024-01-15T03:44:49;3.95;;;0.68;;
72621;SDS011;60665;53.506;9.582;2024-01-15T03:51:37;6.50;;;0.75;;
72621;SDS011;60665;53.506;9.582;2024-01-15T03:55:01;9.52;;;1.00;;
72621;SDS011;60665;53.506;9.582;2024-01-15T04:01:49;5.78;;;1.08;;
72621;SDS011;60665;53.506;9.582;2024-01-15T04:05:13;7.45;;;0.80;;
72621;SDS011;60665;53.506;9.582;2024-01-15T04:12:00;6.50;;;1.05;;
72621;SDS011;60665;53.506;9.582;2024-01-15T04:15:26;9.20;;;1.08;;
72621;SDS011;60665;53.506;9.582;2024-01-15T04:22:14;7.65;;;0.63;;
72621;SDS011;60665;53.506;9.582;2024-01-15T04:29:02;9.27;;;1.20;;
72621;SDS011;60665;53.506;9.582;2024-01-15T04:35:49;8.20;;;0.90;;
72621;SDS011;60665;53.506;9.582;2024-01-15T04:39:13;6.38;;;0.70;;
72621;SDS011;60665;53.506;9.582;2024-01-15T04:42:37;8.13;;;1.42;;
72621;SDS011;60665;53.506;9.582;2024-01-15T04:46:01;10.68;;;1.15;;
72621;SDS011;60665;53.506;9.582;2024-01-15T04:52:49;6.88;;;1.02;;
72621;SDS011;60665;53.506;9.582;2024-01-15T04:56:13;5.55;;;0.70;;
72621;SDS011;60665;53.506;9.582;2024-01-15T05:03:01;5.03;;;0.80;;
72621;SDS011;60665;53.506;9.582;2024-01-15T05:09:49;5.78;;;0.73;;
72621;SDS011;60665;53.506;9.582;2024-01-15T05:16:40;9.35;;;1.15;;
72621;SDS011;60665;53.506;9.582;2024-01-15T05:20:04;9.38;;;1.08;;
72621;SDS011;60665;53.506;9.582;2024-01-15T05:23:28;8.15;;;0.80;;
72621;SDS011;60665;53.506;9.582;2024-01-15T05:30:16;7.50;;;0.95;;
72621;SDS011;60665;53.506;9.582;2024-01-15T05:37:04;6.28;;;1.13;;
72621;SDS011;60665;53.506;9.582;2024-01-15T05:40:28;6.65;;;0.90;;
72621;SDS011;60665;53.506;9.582;2024-01-15T05:47:15;5.15;;;0.95;;
72621;SDS011;60665;53.506;9.582;2024-01-15T05:54:03;9.95;;;1.13;;
72621;SDS011;60665;53.506;9.582;2024-01-15T05:57:27;10.02;;;0.77;;
72621;SDS011;60665;53.506;9.582;2024-01-15T06:00:51;8.13;;;1.10;;
72621;SDS011;60665;53.506;9.582;2024-01-15T06:04:15;8.57;;;1.02;;
72621;SDS011;60665;53.506;9.582;2024-01-15T06:07:39;4.45;;;0.82;;
72621;SDS011;60665;53.506;9.582;2024-01-15T06:11:03;6.78;;;1.10;;
72621;SDS011;60665;53.506;9.582;2024-01-15T06:14:27;6.53;;;1.00;;
72621;SDS011;60665;53.506;9.582;2024-01-15T06:21:15;9.75;;;1.05;;
72621;SDS011;60665;53.506;9.582;2024-01-15T06:24:39;5.85;;;0.80;;
72621;SDS011;60665;53.506;9.582;2024-01-15T06:28:04;5.13;;;1.00;;
72621;SDS011;60665;53.506;9.582;2024-01-15T06:34:52;9.38;;;1.15;;
72621;SDS011;60665;53.506;9.582;2024-01-15T06:41:39;11.88;;;0.98;;
72621;SDS011;60665;53.506;9.582;2024-01-15T06:48:27;5.25;;;0.68;;
72621;SDS011;60665;53.506;9.582;2024-01-15T06:55:15;6.82;;;0.60;;
72621;SDS011;60665;53.506;9.582;2024-01-15T06:58:39;3.45;;;0.68;;
72621;SDS011;60665;53.506;9.582;2024-01-15T07:05:27;2.22;;;0.38;;
72621;SDS011;60665;53.506;9.582;2024-01-15T07:08:51;4.60;;;0.50;;
72621;SDS011;60665;53.506;9.582;2024-01-15T07:12:17;5.70;;;0.90;;
72621;SDS011;60665;53.506;9.582;2024-01-15T07:19:04;7.60;;;1.00;;
72621;SDS011;60665;53.506;9.582;2024-01-15T07:22:29;7.95;;;0.93;;
72621;SDS011;60665;53.506;9.582;2024-01-15T07:25:53;5.07;;;0.85;;
72621;SDS011;60665;53.506;9.582;2024-01-15T07:29:17;1.70;;;0.50;;
72621;SDS011;60665;53.506;9.582;2024-01-15T07:32:41;6.60;;;1.10;;
72621;SDS011;60665;53.506;9.582;2024-01-15T07:39:28;4.25;;;0.43;;
72621;SDS011;60665;53.506;9.582;2024-01-15T07:46:16;3.28;;;0.47;;
72621;SDS011;60665;53.506;9.582;2024-01-15T07:53:04;5.28;;;0.93;;
72621;SDS011;60665;53.506;9.582;2024-01-15T07:56:28;3.42;;;0.50;;
72621;SDS011;60665;53.506;9.582;2024-01-15T07:59:52;4.57;;;0.63;;
72621;SDS011;60665;53.506;9.582;2024-01-15T08:03:16;2.60;;;0.50;;
72621;SDS011;60665;53.506;9.582;2024-01-15T08:10:04;8.48;;;0.77;;
72621;SDS011;60665;53.506;9.582;2024-01-15T08:13:28;9.02;;;0.70;;
72621;SDS011;60665;53.506;9.582;2024-01-15T08:16:52;5.93;;;1.13;;
72621;SDS011;60665;53.506;9.582;2024-01-15T08:23:40;4.05;;;0.65;;
72621;SDS011;60665;53.506;9.582;2024-01-15T08:27:04;5.82;;;0.70;;
72621;SDS011;60665;53.506;9.582;2024-01-15T08:30:28;10.23;;;1.20;;
72621;SDS011;60665;53.506;9.582;2024-01-15T08:33:52;3.67;;;0.90;;
72621;SDS011;60665;53.506;9.582;2024-01-15T08:37:17;5.57;;;1.35;;
72621;SDS011;60665;53.506;9.582;2024-01-15T08:40:41;6.15;;;0.93;;
72621;SDS011;60665;53.506;9.582;2024-01-15T08:44:05;5.03;;;0.85;;
72621;SDS011;60665;53.506;9.582;2024-01-15T08:47:29;3.58;;;0.82;;
72621;SDS011;60665;53.506;9.582;2024-01-15T08:54:17;3.75;;;1.00;;
72621;SDS011;60665;53.506;9.582;2024-01-15T08:57:41;7.28;;;1.00;;
72621;SDS011;60665;53.506;9.582;2024-01-15T09:01:05;4.22;;;0.55;;
72621;SDS011;60665;53.506;9.582;2024-01-15T09:04:29;3.72;;;1.02;;
72621;SDS011;60665;53.506;9.582;2024-01-15T09:11:16;4.22;;;0.82;;
72621;SDS011;60665;53.506;9.582;2024-01-15T09:14:41;3.70;;;0.75;;
72621;SDS011;60665;53.506;9.582;2024-01-15T09:18:05;4.55;;;0.75;;
72621;SDS011;60665;53.506;9.582;2024-01-15T09:24:53;4.82;;;0.70;;
72621;SDS011;60665;53.506;9.582;2024-01-15T09:28:17;4.18;;;0.60;;
72621;SDS011;60665;53.506;9.582;2024-01-15T09:31:41;5.57;;;0.70;;
72621;SDS011;60665;53.506;9.582;2024-01-15T09:35:05;1.98;;;0.43;;
72621;SDS011;60665;53.506;9.582;2024-01-15T09:38:30;1.85;;;0.60;;
72621;SDS011;60665;53.506;9.582;2024-01-15T09:41:55;5.75;;;0.60;;
72621;SDS011;60665;53.506;9.582;2024-01-15T09:45:19;3.42;;;0.90;;
72621;SDS011;60665;53.506;9.582;2024-01-15T09:48:43;4.28;;;0.38;;
72621;SDS011;60665;53.506;9.582;2024-01-15T09:52:07;3.05;;;0.68;;
72621;SDS011;60665;53.506;9.582;2024-01-15T09:58:55;0.98;;;0.30;;
72621;SDS011;60665;53.506;9.582;2024-01-15T10:02:19;3.80;;;0.50;;
72621;SDS011;60665;53.506;9.582;2024-01-15T10:09:10;3.22;;;0.43;;
72621;SDS011;60665;53.506;9.582;2024-01-15T10:12:35;1.70;;;0.50;;
72621;SDS011;60665;53.506;9.582;2024-01-15T10:19:23;1.55;;;0.40;;
72621;SDS011;60665;53.506;9.582;2024-01-15T10:22:47;1.88;;;0.35;;
72621;SDS011;60665;53.506;9.582;2024-01-15T10:26:11;3.50;;;0.40;;
72621;SDS011;60665;53.506;9.582;2024-01-15T10:29:35;1.98;;;0.30;;
72621;SDS011;60665;53.506;9.582;2024-01-15T10:33:00;1.33;;;0.30;;
72621;SDS011;60665;53.506;9.582;2024-01-15T10:36:39;2.63;;;0.40;;
72621;SDS011;60665;53.506;9.582;2024-01-15T10:40:03;1.88;;;0.35;;
72621;SDS011;60665;53.506;9.582;2024-01-15T10:43:27;4.03;;;0.75;;
72621;SDS011;60665;53.506;9.582;2024-01-15T10:50:15;1.65;;;0.52;;
72621;SDS011;60665;53.506;9.582;2024-01-15T10:53:40;5.28;;;0.88;;
72621;SDS011;60665;53.506;9.582;2024-01-15T10:57:05;6.78;;;0.60;;
72621;SDS011;60665;53.506;9.582;2024-01-15T11:00:29;1.33;;;0.50;;
72621;SDS011;60665;53.506;9.582;2024-01-15T11:03:54;1.52;;;0.50;;
72621;SDS011;60665;53.506;9.582;2024-01-15T11:07:18;1.90;;;0.70;;
72621;SDS011;60665;53.506;9.582;2024-01-15T11:10:48;1.73;;;0.60;;
72621;SDS011;60665;53.506;9.582;2024-01-15T11:14:34;2.03;;;0.55;;
72621;SDS011;60665;53.506;9.582;2024-01-15T11:17:59;1.98;;;0.50;;
72621;SDS011;60665;53.506;9.582;2024-01-15T11:21:23;2.15;;;0.50;;
72621;SDS011;60665;53.506;9.582;2024-01-15T11:25:04;1.42;;;0.50;;
72621;SDS011;60665;53.506;9.582;2024-01-15T11:28:54;3.67;;;0.55;;
72621;SDS011;60665;53.506;9.582;2024-01-15T11:32:33;1.50;;;0.50;;
72621;SDS011;60665;53.506;9.582;2024-01-15T11:35:59;1.17;;;0.50;;
72621;SDS011;60665;53.506;9.582;2024-01-15T11:42:58;0.17;;;0.13;;
72621;SDS011;60665;53.506;9.582;2024-01-15T11:46:22;0.65;;;0.28;;
72621;SDS011;60665;53.506;9.582;2024-01-15T11:50:08;1.13;;;0.30;;
72621;SDS011;60665;53.506;9.582;2024-01-15T11:53:47;1.20;;;0.22;;
72621;SDS011;60665;53.506;9.582;2024-01-15T11:57:57;1.20;;;0.35;;
72621;SDS011;60665;53.506;9.582;2024-01-15T12:01:15;0.22;;;0.15;;
72621;SDS011;60665;53.506;9.582;2024-01-15T12:08:04;0.95;;;0.30;;
72621;SDS011;60665;53.506;9.582;2024-01-15T12:11:31;0.85;;;0.32;;
72621;SDS011;60665;53.506;9.582;2024-01-15T12:15:11;1.38;;;0.40;;
72621;SDS011;60665;53.506;9.582;2024-01-15T12:21:59;1.38;;;0.35;;
72621;SDS011;60665;53.506;9.582;2024-01-15T12:25:23;0.73;;;0.25;;
72621;SDS011;60665;53.506;9.582;2024-01-15T12:28:49;0.60;;;0.20;;
72621;SDS011;60665;53.506;9.582;2024-01-15T12:32:13;0.57;;;0.30;;
72621;SDS011;60665;53.506;9.582;2024-01-15T12:35:37;0.80;;;0.40;;
72621;SDS011;60665;53.506;9.582;2024-01-15T12:42:25;9.35;;;3.58;;
72621;SDS011;60665;53.506;9.582;2024-01-15T12:49:13;4.57;;;1.65;;
72621;SDS011;60665;53.506;9.582;2024-01-15T12:52:37;2.55;;;1.00;;
72621;SDS011;60665;53.506;9.582;2024-01-15T12:56:01;2.53;;;0.93;;
72621;SDS011;60665;53.506;9.582;2024-01-15T13:02:50;0.98;;;0.47;;
72621;SDS011;60665;53.506;9.582;2024-01-15T13:09:38;1.38;;;0.50;;
72621;SDS011;60665;53.506;9.582;2024-01-15T13:16:26;2.25;;;0.60;;
72621;SDS011;60665;53.506;9.582;2024-01-15T13:23:14;1.90;;;0.80;;
72621;SDS011;60665;53.506;9.582;2024-01-15T13:26:39;1.60;;;0.45;;
72621;SDS011;60665;53.506;9.582;2024-01-15T13:30:03;2.63;;;0.50;;
72621;SDS011;60665;53.506;9.582;2024-01-15T13:33:27;1.48;;;0.50;;
72621;SDS011;60665;53.506;9.582;2024-01-15T13:36:51;0.73;;;0.32;;
72621;SDS011;60665;53.506;9.582;2024-01-15T13:43:40;0.90;;;0.47;;
72621;SDS011;60665;53.506;9.582;2024-01-15T13:47:06;2.13;;;0.70;;
72621;SDS011;60665;53.506;9.582;2024-01-15T13:50:36;2.22;;;0.60;;
72621;SDS011;60665;53.506;9.582;2024-01-15T13:54:01;1.15;;;0.43;;
72621;SDS011;60665;53.506;9.582;2024-01-15T13:57:25;1.52;;;0.45;;
72621;SDS011;60665;53.506;9.582;2024-01-15T14:00:50;1.48;;;0.50;;
72621;SDS011;60665;53.506;9.582;2024-01-15T14:04:14;2.17;;;0.75;;
72621;SDS011;60665;53.506;9.582;2024-01-15T14:07:38;2.72;;;1.05;;
72621;SDS011;60665;53.506;9.582;2024-01-15T14:11:02;4.25;;;1.33;;
72621;SDS011;60665;53.506;9.582;2024-01-15T14:14:27;4.03;;;1.40;;
72621;SDS011;60665;53.506;9.582;2024-01-15T14:17:52;4.28;;;1.55;;
72621;SDS011;60665;53.506;9.582;2024-01-15T14:21:16;3.13;;;0.95;;
72621;SDS011;60665;53.506;9.582;2024-01-15T14:28:04;3.20;;;1.27;;
72621;SDS011;60665;53.506;9.582;2024-01-15T14:31:28;1.83;;;0.75;;
72621;SDS011;60665;53.506;9.582;2024-01-15T14:34:52;1.50;;;0.50;;
72621;SDS011;60665;53.506;9.582;2024-01-15T14:41:40;1.42;;;0.60;;
72621;SDS011;60665;53.506;9.582;2024-01-15T14:45:04;1.15;;;0.30;;
72621;SDS011;60665;53.506;9.582;2024-01-15T14:48:28;1.88;;;0.40;;
72621;SDS011;60665;53.506;9.582;2024-01-15T14:55:16;1.25;;;0.47;;
72621;SDS011;60665;53.506;9.582;2024-01-15T14:58:40;1.13;;;0.60;;
72621;SDS011;60665;53.506;9.582;2024-01-15T15:02:05;1.58;;;0.40;;
72621;SDS011;60665;53.506;9.582;2024-01-15T15:05:29;2.40;;;0.82;;
72621;SDS011;60665;53.506;9.582;2024-01-15T15:08:53;2.58;;;1.00;;
72621;SDS011;60665;53.506;9.582;2024-01-15T15:12:17;2.15;;;0.85;;
72621;SDS011;60665;53.506;9.582;2024-01-15T15:15:41;4.35;;;1.17;;
72621;SDS011;60665;53.506;9.582;2024-01-15T15:19:05;3.72;;;1.30;;
72621;SDS011;60665;53.506;9.582;2024-01-15T15:22:31;5.45;;;1.20;;
72621;SDS011;60665;53.506;9.582;2024-01-15T15:29:18;4.38;;;1.42;;
72621;SDS011;60665;53.506;9.582;2024-01-15T15:36:06;4.35;;;1.50;;
72621;SDS011;60665;53.506;9.582;2024-01-15T15:39:30;5.32;;;1.70;;
72621;SDS011;60665;53.506;9.582;2024-01-15T15:46:18;4.55;;;1.50;;
72621;SDS011;60665;53.506;9.582;2024-01-15T15:53:05;4.03;;;1.67;;
72621;SDS011;60665;53.506;9.582;2024-01-15T15:56:31;5.97;;;2.38;;
72621;SDS011;60665;53.506;9.582;2024-01-15T15:59:56;7.10;;;2.42;;
72621;SDS011;60665;53.506;9.582;2024-01-15T16:06:44;6.25;;;2.47;;
72621;SDS011;60665;53.506;9.582;2024-01-15T16:10:08;7.85;;;2.53;;
72621;SDS011;60665;53.506;9.582;2024-01-15T16:13:32;6.85;;;2.30;;
72621;SDS011;60665;53.506;9.582;2024-01-15T16:16:56;6.43;;;2.20;;
72621;SDS011;60665;53.506;9.582;2024-01-15T16:20:20;8.02;;;2.78;;
72621;SDS011;60665;53.506;9.582;2024-01-15T16:27:08;5.78;;;1.83;;
72621;SDS011;60665;53.506;9.582;2024-01-15T16:33:56;5.63;;;2.15;;
72621;SDS011;60665;53.506;9.582;2024-01-15T16:40:44;8.75;;;2.28;;
72621;SDS011;60665;53.506;9.582;2024-01-15T16:47:32;4.88;;;1.75;;
72621;SDS011;60665;53.506;9.582;2024-01-15T16:54:19;6.03;;;2.50;;
72621;SDS011;60665;53.506;9.582;2024-01-15T17:01:07;6.85;;;2.67;;
72621;SDS011;60665;53.506;9.582;2024-01-15T17:07:55;6.20;;;2.88;;
72621;SDS011;60665;53.506;9.582;2024-01-15T17:14:42;6.35;;;1.70;;
72621;SDS011;60665;53.506;9.582;2024-01-15T17:21:32;4.32;;;1.10;;
72621;SDS011;60665;53.506;9.582;2024-01-15T17:24:57;4.03;;;1.25;;
72621;SDS011;60665;53.506;9.582;2024-01-15T17:28:21;3.28;;;1.15;;
72621;SDS011;60665;53.506;9.582;2024-01-15T17:31:45;6.97;;;1.65;;
72621;SDS011;60665;53.506;9.582;2024-01-15T17:35:09;6.57;;;1.40;;
72621;SDS011;60665;53.506;9.582;2024-01-15T17:38:34;4.30;;;1.10;;
72621;SDS011;60665;53.506;9.582;2024-01-15T17:45:21;1.20;;;0.63;;
72621;SDS011;60665;53.506;9.582;2024-01-15T17:48:46;2.55;;;0.95;;
72621;SDS011;60665;53.506;9.582;2024-01-15T17:52:09;3.53;;;0.73;;
72621;SDS011;60665;53.506;9.582;2024-01-15T17:55:35;1.77;;;0.63;;
72621;SDS011;60665;53.506;9.582;2024-01-15T17:59:00;3.00;;;0.90;;
72621;SDS011;60665;53.506;9.582;2024-01-15T18:05:47;1.10;;;0.38;;
72621;SDS011;60665;53.506;9.582;2024-01-15T18:09:15;1.80;;;0.70;;
72621;SDS011;60665;53.506;9.582;2024-01-15T18:12:39;2.83;;;0.88;;
72621;SDS011;60665;53.506;9.582;2024-01-15T18:16:03;1.55;;;0.57;;
72621;SDS011;60665;53.506;9.582;2024-01-15T18:19:27;1.92;;;0.77;;
72621;SDS011;60665;53.506;9.582;2024-01-15T18:22:51;2.00;;;0.70;;
72621;SDS011;60665;53.506;9.582;2024-01-15T18:26:15;3.30;;;0.73;;
72621;SDS011;60665;53.506;9.582;2024-01-15T18:29:40;2.25;;;0.70;;
72621;SDS011;60665;53.506;9.582;2024-01-15T18:33:04;1.88;;;0.75;;
72621;SDS011;60665;53.506;9.582;2024-01-15T18:39:53;2.55;;;0.95;;
72621;SDS011;60665;53.506;9.582;2024-01-15T18:43:17;2.92;;;1.13;;
72621;SDS011;60665;53.506;9.582;2024-01-15T18:46:42;5.53;;;1.33;;
72621;SDS011;60665;53.506;9.582;2024-01-15T18:50:07;3.58;;;1.42;;
72621;SDS011;60665;53.506;9.582;2024-01-15T18:56:55;2.47;;;1.10;;
72621;SDS011;60665;53.506;9.582;2024-01-15T19:00:20;2.72;;;1.08;;
72621;SDS011;60665;53.506;9.582;2024-01-15T19:03:54;2.20;;;1.05;;
72621;SDS011;60665;53.506;9.582;2024-01-15T19:07:18;2.47;;;0.90;;
72621;SDS011;60665;53.506;9.582;2024-01-15T19:10:42;3.08;;;1.10;;
72621;SDS011;60665;53.506;9.582;2024-01-15T19:14:06;2.60;;;0.98;;
72621;SDS011;60665;53.506;9.582;2024-01-15T19:17:30;2.10;;;0.95;;
72621;SDS011;60665;53.506;9.582;2024-01-15T19:20:54;4.10;;;1.30;;
72621;SDS011;60665;53.506;9.582;2024-01-15T19:24:18;2.80;;;0.90;;
72621;SDS011;60665;53.506;9.582;2024-01-15T19:31:06;2.08;;;0.82;;
72621;SDS011;60665;53.506;9.582;2024-01-15T19:37:54;2.35;;;0.93;;
72621;SDS011;60665;53.506;9.582;2024-01-15T19:41:18;4.25;;;1.23;;
72621;SDS011;60665;53.506;9.582;2024-01-15T19:44:42;4.93;;;1.25;;
72621;SDS011;60665;53.506;9.582;2024-01-15T19:48:06;2.55;;;0.90;;
72621;SDS011;60665;53.506;9.582;2024-01-15T19:51:34;5.47;;;1.33;;
72621;SDS011;60665;53.506;9.582;2024-01-15T19:54:58;2.53;;;1.15;;
72621;SDS011;60665;53.506;9.582;2024-01-15T19:58:21;2.65;;;1.00;;
72621;SDS011;60665;53.506;9.582;2024-01-15T20:01:45;4.30;;;1.27;;
72621;SDS011;60665;53.506;9.582;2024-01-15T20:08:36;3.05;;;1.35;;
72621;SDS011;60665;53.506;9.582;2024-01-15T20:12:00;5.93;;;1.40;;
72621;SDS011;60665;53.506;9.582;2024-01-15T20:15:24;7.93;;;1.52;;
72621;SDS011;60665;53.506;9.582;2024-01-15T20:18:49;2.65;;;1.23;;
72621;SDS011;60665;53.506;9.582;2024-01-15T20:25:36;3.13;;;1.20;;
72621;SDS011;60665;53.506;9.582;2024-01-15T20:29:00;3.33;;;1.60;;
72621;SDS011;60665;53.506;9.582;2024-01-15T20:32:24;3.20;;;1.45;;
72621;SDS011;60665;53.506;9.582;2024-01-15T20:35:48;6.60;;;1.48;;
72621;SDS011;60665;53.506;9.582;2024-01-15T20:39:13;5.93;;;1.52;;
72621;SDS011;60665;53.506;9.582;2024-01-15T20:42:37;4.85;;;1.30;;
72621;SDS011;60665;53.506;9.582;2024-01-15T20:49:24;7.15;;;1.50;;
72621;SDS011;60665;53.506;9.582;2024-01-15T20:52:49;6.18;;;1.55;;
72621;SDS011;60665;53.506;9.582;2024-01-15T20:56:14;4.30;;;1.20;;
72621;SDS011;60665;53.506;9.582;2024-01-15T20:59:38;2.97;;;1.10;;
72621;SDS011;60665;53.506;9.582;2024-01-15T21:03:04;5.95;;;1.40;;
72621;SDS011;60665;53.506;9.582;2024-01-15T21:06:28;3.00;;;1.25;;
72621;SDS011;60665;53.506;9.582;2024-01-15T21:09:53;3.92;;;1.23;;
72621;SDS011;60665;53.506;9.582;2024-01-15T21:13:17;6.95;;;1.50;;
72621;SDS011;60665;53.506;9.582;2024-01-15T21:16:43;3.50;;;1.38;;
72621;SDS011;60665;53.506;9.582;2024-01-15T21:20:07;3.28;;;1.15;;
72621;SDS011;60665;53.506;9.582;2024-01-15T21:23:31;6.07;;;1.85;;
72621;SDS011;60665;53.506;9.582;2024-01-15T21:30:19;4.28;;;1.25;;
72621;SDS011;60665;53.506;9.582;2024-01-15T21:33:44;5.28;;;1.70;;
72621;SDS011;60665;53.506;9.582;2024-01-15T21:37:08;4.10;;;1.60;;
72621;SDS011;60665;53.506;9.582;2024-01-15T21:40:32;3.65;;;1.60;;
72621;SDS011;60665;53.506;9.582;2024-01-15T21:43:57;7.18;;;1.38;;
72621;SDS011;60665;53.506;9.582;2024-01-15T21:50:46;4.00;;;1.35;;
72621;SDS011;60665;53.506;9.582;2024-01-15T21:54:10;3.75;;;1.33;;
72621;SDS011;60665;53.506;9.582;2024-01-15T21:57:34;3.25;;;1.42;;
72621;SDS011;60665;53.506;9.582;2024-01-15T22:04:22;7.88;;;1.80;;
72621;SDS011;60665;53.506;9.582;2024-01-15T22:07:46;5.47;;;2.08;;
72621;SDS011;60665;53.506;9.582;2024-01-15T22:11:10;5.90;;;1.67;;
72621;SDS011;60665;53.506;9.582;2024-01-15T22:14:35;4.57;;;1.98;;
72621;SDS011;60665;53.506;9.582;2024-01-15T22:17:59;6.22;;;2.45;;
72621;SDS011;60665;53.506;9.582;2024-01-15T22:21:23;7.75;;;2.80;;
72621;SDS011;60665;53.506;9.582;2024-01-15T22:24:47;6.35;;;2.60;;
72621;SDS011;60665;53.506;9.582;2024-01-15T22:31:35;4.70;;;1.73;;
72621;SDS011;60665;53.506;9.582;2024-01-15T22:34:59;6.20;;;1.75;;
72621;SDS011;60665;53.506;9.582;2024-01-15T22:38:23;7.43;;;2.05;;
72621;SDS011;60665;53.506;9.582;2024-01-15T22:41:48;5.65;;;2.10;;
72621;SDS011;60665;53.506;9.582;2024-01-15T22:45:12;5.75;;;2.30;;
72621;SDS011;60665;53.506;9.582;2024-01-15T22:48:37;3.80;;;1.90;;
72621;SDS011;60665;53.506;9.582;2024-01-15T22:52:01;5.05;;;2.22;;
72621;SDS011;60665;53.506;9.582;2024-01-15T22:55:25;4.65;;;2.65;;
72621;SDS011;60665;53.506;9.582;2024-01-15T22:58:48;5.00;;;2.25;;
72621;SDS011;60665;53.506;9.582;2024-01-15T23:02:12;7.47;;;2.30;;
72621;SDS011;60665;53.506;9.582;2024-01-15T23:05:37;5.88;;;2.83;;
72621;SDS011;60665;53.506;9.582;2024-01-15T23:09:00;4.97;;;2.38;;
72621;SDS011;60665;53.506;9.582;2024-01-15T23:12:24;5.95;;;2.22;;
72621;SDS011;60665;53.506;9.582;2024-01-15T23:15:48;4.82;;;2.10;;
72621;SDS011;60665;53.506;9.582;2024-01-15T23:19:12;5.82;;;2.03;;
72621;SDS011;60665;53.506;9.582;2024-01-15T23:22:36;5.35;;;2.42;;
72621;SDS011;60665;53.506;9.582;2024-01-15T23:26:01;6.50;;;2.67;;
72621;SDS011;60665;53.506;9.582;2024-01-15T23:29:25;4.47;;;2.20;;
72621;SDS011;60665;53.506;9.582;2024-01-15T23:32:49;5.63;;;2.65;;
72621;SDS011;60665;53.506;9.582;2024-01-15T23:36:13;7.43;;;2.78;;
72621;SDS011;60665;53.506;9.582;2024-01-15T23:39:37;5.35;;;2.55;;
72621;SDS011;60665;53.506;9.582;2024-01-15T23:43:01;6.47;;;3.13;;
72621;SDS011;60665;53.506;9.582;2024-01-15T23:46:28;9.30;;;3.28;;
72621;SDS011;60665;53.506;9.582;2024-01-15T23:49:52;6.65;;;2.90;;
72621;SDS011;60665;53.506;9.582;2024-01-15T23:53:15;5.90;;;2.63;;
72621;SDS011;60665;53.506;9.582;2024-01-15T23:56:40;5.93;;;2.83;;
